createdAt,value
2019-05-25T00:01:49.786Z,73.48
2019-05-25T00:04:23.197Z,73.57
2019-05-25T00:06:56.672Z,73.62
2019-05-25T00:09:30.147Z,73.37
2019-05-25T00:12:03.576Z,73.33
2019-05-25T00:14:36.977Z,72.88
2019-05-25T00:17:10.389Z,73.88
2019-05-25T00:19:43.869Z,73.81
2019-05-25T00:22:17.266Z,74.34
2019-05-25T00:24:50.693Z,74.55
2019-05-25T00:27:24.091Z,74.02
2019-05-25T00:29:57.506Z,74.04
2019-05-25T00:32:30.906Z,74.89
2019-05-25T00:35:05.751Z,74.06
2019-05-25T00:37:39.144Z,73.74
2019-05-25T00:40:12.795Z,74.39
2019-05-25T00:42:46.197Z,72.89
2019-05-25T00:45:19.695Z,72.69
2019-05-25T00:47:53.083Z,71.39
2019-05-25T00:50:26.513Z,69.75
2019-05-25T00:52:59.901Z,69.92
2019-05-25T00:55:33.317Z,66.95
2019-05-25T00:58:06.688Z,65.90
2019-05-25T01:00:40.171Z,67.15
2019-05-25T01:03:13.569Z,69.27
2019-05-25T01:05:46.980Z,70.25
2019-05-25T01:08:20.390Z,71.23
2019-05-25T01:10:53.805Z,71.17
2019-05-25T01:13:27.219Z,71.09
2019-05-25T01:16:00.613Z,70.12
2019-05-25T01:18:34.018Z,72.58
2019-05-25T01:21:07.449Z,73.26
2019-05-25T01:23:40.833Z,73.18
2019-05-25T01:26:14.248Z,73.93
2019-05-25T01:28:47.641Z,73.97
2019-05-25T01:31:21.056Z,74.12
2019-05-25T01:33:54.450Z,74.79
2019-05-25T01:36:27.879Z,74.64
2019-05-25T01:39:01.287Z,74.54
2019-05-25T01:41:34.703Z,74.70
2019-05-25T01:44:08.097Z,75.37
2019-05-25T01:46:41.540Z,76.16
2019-05-25T01:49:14.916Z,76.48
2019-05-25T01:51:48.329Z,77.01
2019-05-25T01:54:21.727Z,77.23
2019-05-25T01:56:55.147Z,76.60
2019-05-25T01:59:28.556Z,76.57
2019-05-25T02:02:01.989Z,77.75
2019-05-25T02:04:35.367Z,78.14
2019-05-25T02:07:08.774Z,78.52
2019-05-25T02:09:42.157Z,78.01
2019-05-25T02:12:16.843Z,78.30
2019-05-25T02:14:50.166Z,77.60
2019-05-25T02:17:23.588Z,76.75
2019-05-25T02:19:56.981Z,76.62
2019-05-25T02:22:30.396Z,76.62
2019-05-25T02:25:17.194Z,76.64
2019-05-25T02:27:42.607Z,77.45
2019-05-25T02:30:17.858Z,78.05
2019-05-25T02:32:51.249Z,77.45
2019-05-25T02:35:27.512Z,77.10
2019-05-25T02:38:00.941Z,76.74
2019-05-25T02:40:34.479Z,76.09
2019-05-25T02:43:07.892Z,75.56
2019-05-25T02:45:41.285Z,76.16
2019-05-25T02:48:14.770Z,75.84
2019-05-25T02:50:48.397Z,76.09
2019-05-25T02:53:21.816Z,76.57
2019-05-25T02:55:55.223Z,76.69
2019-05-25T02:58:28.654Z,76.51
2019-05-25T03:01:02.327Z,76.54
2019-05-25T03:03:35.815Z,77.08
2019-05-25T03:06:09.832Z,76.78
2019-05-25T03:08:45.268Z,76.86
2019-05-25T03:11:19.633Z,76.69
2019-05-25T03:13:53.350Z,76.66
2019-05-25T03:16:26.754Z,76.86
2019-05-25T03:19:00.173Z,77.00
2019-05-25T03:21:33.575Z,77.63
2019-05-25T03:24:06.991Z,78.21
2019-05-25T03:26:40.370Z,78.86
2019-05-25T03:29:13.866Z,79.65
2019-05-25T03:31:47.256Z,80.49
2019-05-25T03:34:20.669Z,80.25
2019-05-25T03:36:54.431Z,80.83
2019-05-25T03:39:27.848Z,81.07
2019-05-25T03:42:01.260Z,81.50
2019-05-25T03:44:34.666Z,81.67
2019-05-25T03:47:08.070Z,81.22
2019-05-25T03:49:41.494Z,81.44
2019-05-25T03:52:14.895Z,81.30
2019-05-25T03:54:48.304Z,81.45
2019-05-25T03:57:21.708Z,81.54
2019-05-25T03:59:55.145Z,81.77
2019-05-25T04:02:28.653Z,81.99
2019-05-25T04:05:02.199Z,81.82
2019-05-25T04:07:35.676Z,81.87
2019-05-25T04:10:09.733Z,81.78
2019-05-25T04:12:43.124Z,81.53
2019-05-25T04:15:16.646Z,81.49
2019-05-25T04:17:50.048Z,81.41
2019-05-25T04:20:23.504Z,81.28
2019-05-25T04:22:56.925Z,81.71
2019-05-25T04:25:30.392Z,81.49
2019-05-25T04:28:03.871Z,81.48
2019-05-25T04:30:37.310Z,81.67
2019-05-25T04:33:10.699Z,81.36
2019-05-25T04:35:44.103Z,81.00
2019-05-25T04:38:17.526Z,80.80
2019-05-25T04:40:50.945Z,80.49
2019-05-25T04:43:24.347Z,80.48
2019-05-25T04:45:57.767Z,82.05
2019-05-25T04:48:31.210Z,82.24
2019-05-25T04:51:04.707Z,81.59
2019-05-25T04:53:38.124Z,82.17
2019-05-25T04:56:11.533Z,81.78
2019-05-25T04:58:44.965Z,80.40
2019-05-25T05:01:22.243Z,79.73
2019-05-25T05:03:53.510Z,80.09
2019-05-25T05:06:26.913Z,81.09
2019-05-25T05:09:00.328Z,81.56
2019-05-25T05:11:33.754Z,81.86
2019-05-25T05:14:07.152Z,82.12
2019-05-25T05:16:40.542Z,82.56
2019-05-25T05:19:13.964Z,82.57
2019-05-25T05:21:47.361Z,81.97
2019-05-25T05:24:20.952Z,81.87
2019-05-25T05:26:56.189Z,81.25
2019-05-25T05:29:29.498Z,81.33
2019-05-25T05:32:02.904Z,80.83
2019-05-25T05:34:36.386Z,79.90
2019-05-25T05:37:10.637Z,78.67
2019-05-25T05:39:45.403Z,79.67
2019-05-25T05:42:21.245Z,77.19
2019-05-25T05:44:57.288Z,78.41
2019-05-25T05:47:33.732Z,75.83
2019-05-25T05:50:10.530Z,73.11
2019-05-25T05:52:44.987Z,71.99
2019-05-25T05:55:21.471Z,73.73
2019-05-25T05:57:54.875Z,69.40
2019-05-25T06:00:28.456Z,67.73
2019-05-25T06:03:01.863Z,66.62
2019-05-25T06:05:35.267Z,65.64
2019-05-25T06:08:08.674Z,70.34
2019-05-25T06:10:42.096Z,71.36
2019-05-25T06:13:15.521Z,68.54
2019-05-25T06:15:48.918Z,64.91
2019-05-25T06:18:22.405Z,64.86
2019-05-25T06:20:55.834Z,60.25
2019-05-25T06:23:29.207Z,58.76
2019-05-25T06:26:02.650Z,62.13
2019-05-25T06:28:36.137Z,63.34
2019-05-25T06:31:09.595Z,64.89
2019-05-25T06:33:42.977Z,65.00
2019-05-25T06:36:16.433Z,66.75
2019-05-25T06:38:49.830Z,67.22
2019-05-25T06:41:23.245Z,66.35
2019-05-25T06:43:56.648Z,65.88
2019-05-25T06:46:30.052Z,65.36
2019-05-25T06:49:03.529Z,63.52
2019-05-25T06:51:37.057Z,64.62
2019-05-25T06:54:10.466Z,62.18
2019-05-25T06:56:43.887Z,60.26
2019-05-25T06:59:17.277Z,61.85
2019-05-25T07:01:50.684Z,61.66
2019-05-25T07:04:24.086Z,61.57
2019-05-25T07:06:57.522Z,59.82
2019-05-25T07:09:30.934Z,58.53
2019-05-25T07:12:04.491Z,57.66
2019-05-25T07:14:37.900Z,59.76
2019-05-25T07:17:11.419Z,59.93
2019-05-25T07:19:44.899Z,61.73
2019-05-25T07:22:18.291Z,64.87
2019-05-25T07:24:51.694Z,66.30
2019-05-25T07:27:25.139Z,65.12
2019-05-25T07:29:58.557Z,63.82
2019-05-25T07:32:32.043Z,63.11
2019-05-25T07:35:07.028Z,63.30
2019-05-25T07:37:40.462Z,62.10
2019-05-25T07:40:14.084Z,58.49
2019-05-25T07:42:49.101Z,54.45
2019-05-25T07:45:22.786Z,57.04
2019-05-25T07:47:56.204Z,60.74
2019-05-25T07:50:29.603Z,60.44
2019-05-25T07:53:03.098Z,60.93
2019-05-25T07:55:36.558Z,58.44
2019-05-25T07:58:17.631Z,58.07
2019-05-25T08:00:45.963Z,58.19
2019-05-25T08:03:19.385Z,58.47
2019-05-25T08:05:52.786Z,58.45
2019-05-25T08:08:26.216Z,58.38
2019-05-25T08:10:59.641Z,54.94
2019-05-25T08:13:33.077Z,53.55
2019-05-25T08:16:06.564Z,54.34
2019-05-25T08:18:39.992Z,53.95
2019-05-25T08:21:13.389Z,52.87
2019-05-25T08:23:46.828Z,51.54
2019-05-25T08:26:20.254Z,53.24
2019-05-25T08:28:53.771Z,52.49
2019-05-25T08:31:27.176Z,50.50
2019-05-25T08:34:00.671Z,54.05
2019-05-25T08:36:34.156Z,53.85
2019-05-25T08:39:07.936Z,54.19
2019-05-25T08:41:41.334Z,53.15
2019-05-25T08:44:14.755Z,53.36
2019-05-25T08:46:48.248Z,53.89
2019-05-25T08:49:21.701Z,53.89
2019-05-25T08:51:55.190Z,53.43
2019-05-25T08:54:28.731Z,52.62
2019-05-25T08:57:02.288Z,55.64
2019-05-25T08:59:35.769Z,52.68
2019-05-25T09:02:09.108Z,51.63
2019-05-25T09:04:42.515Z,50.62
2019-05-25T09:07:15.908Z,51.54
2019-05-25T09:09:50.918Z,51.54
2019-05-25T09:12:24.365Z,51.82
2019-05-25T09:14:57.794Z,51.48
2019-05-25T09:17:31.246Z,50.12
2019-05-25T09:20:08.594Z,50.82
2019-05-25T09:22:41.995Z,51.51
2019-05-25T09:25:15.543Z,50.31
2019-05-25T09:27:48.968Z,49.33
2019-05-25T09:30:22.496Z,47.72
2019-05-25T09:32:57.428Z,47.70
2019-05-25T09:35:30.861Z,45.96
2019-05-25T09:38:04.320Z,46.30
2019-05-25T09:40:37.728Z,47.93
2019-05-25T09:43:11.132Z,46.54
2019-05-25T09:45:44.543Z,47.98
2019-05-25T09:48:18.008Z,44.53
2019-05-25T09:50:51.445Z,45.43
2019-05-25T09:53:24.844Z,46.53
2019-05-25T09:55:58.247Z,47.67
2019-05-25T09:58:31.669Z,46.79
2019-05-25T10:01:05.237Z,46.19
2019-05-25T10:03:38.608Z,47.17
2019-05-25T10:06:13.322Z,45.15
2019-05-25T10:08:46.928Z,43.95
2019-05-25T10:11:20.345Z,43.80
2019-05-25T10:13:53.738Z,43.76
2019-05-25T10:16:27.177Z,43.17
2019-05-25T10:19:00.568Z,43.96
2019-05-25T10:21:33.979Z,43.83
2019-05-25T10:24:07.385Z,44.14
2019-05-25T10:26:40.833Z,43.85
2019-05-25T10:29:14.293Z,44.14
2019-05-25T10:31:47.721Z,45.21
2019-05-25T10:34:21.102Z,44.94
2019-05-25T10:36:54.535Z,44.25
2019-05-25T10:39:27.923Z,45.08
2019-05-25T10:42:01.341Z,45.71
2019-05-25T10:44:34.744Z,44.96
2019-05-25T10:47:08.164Z,44.38
2019-05-25T10:49:41.560Z,44.30
2019-05-25T10:52:15.071Z,45.93
2019-05-25T10:54:48.492Z,47.32
2019-05-25T10:57:21.911Z,45.47
2019-05-25T10:59:55.337Z,44.31
2019-05-25T11:02:28.771Z,42.10
2019-05-25T11:05:02.285Z,43.64
2019-05-25T11:07:35.693Z,44.10
2019-05-25T11:10:09.928Z,45.24
2019-05-25T11:12:43.341Z,43.87
2019-05-25T11:15:17.066Z,45.08
2019-05-25T11:17:50.494Z,43.63
2019-05-25T11:20:23.951Z,45.08
2019-05-25T11:22:57.368Z,44.35
2019-05-25T11:25:30.771Z,46.45
2019-05-25T11:28:04.272Z,46.09
2019-05-25T11:30:37.674Z,45.01
2019-05-25T11:33:11.105Z,46.16
2019-05-25T11:35:45.066Z,44.11
2019-05-25T11:38:18.531Z,44.46
2019-05-25T11:40:51.936Z,44.19
2019-05-25T11:43:25.354Z,43.19
2019-05-25T11:45:58.836Z,44.31
2019-05-25T11:48:32.242Z,43.22
2019-05-25T11:51:05.670Z,42.39
2019-05-25T11:53:39.173Z,42.91
2019-05-25T11:56:12.592Z,43.36
2019-05-25T11:58:47.676Z,42.08
2019-05-25T12:01:21.128Z,40.71
2019-05-25T12:03:54.540Z,42.23
2019-05-25T12:06:27.980Z,42.09
2019-05-25T12:09:01.409Z,41.23
2019-05-25T12:11:34.813Z,41.54
2019-05-25T12:14:08.275Z,40.62
2019-05-25T12:16:41.756Z,39.36
2019-05-25T12:19:15.221Z,38.71
2019-05-25T12:21:48.715Z,38.48
2019-05-25T12:24:22.140Z,37.67
2019-05-25T12:26:55.573Z,38.04
2019-05-25T12:29:28.993Z,38.14
2019-05-25T12:32:04.378Z,36.80
2019-05-25T12:34:37.605Z,38.30
2019-05-25T12:37:11.047Z,36.54
2019-05-25T12:39:44.438Z,36.33
2019-05-25T12:42:17.875Z,37.12
2019-05-25T12:44:51.283Z,36.97
2019-05-25T12:47:24.679Z,35.92
2019-05-25T12:49:58.070Z,34.19
2019-05-25T12:52:31.499Z,33.08
2019-05-25T12:55:06.060Z,31.73
2019-05-25T12:57:39.460Z,31.63
2019-05-25T13:00:15.888Z,30.69
2019-05-25T13:02:48.275Z,29.06
2019-05-25T13:05:33.848Z,29.10
2019-05-25T13:07:56.811Z,28.64
2019-05-25T13:10:30.241Z,28.13
2019-05-25T13:13:03.739Z,27.19
2019-05-25T13:15:37.134Z,27.79
2019-05-25T13:18:10.545Z,27.92
2019-05-25T13:20:43.947Z,26.51
2019-05-25T13:23:17.356Z,25.97
2019-05-25T13:25:50.748Z,24.33
2019-05-25T13:28:24.166Z,24.19
2019-05-25T13:31:10.834Z,24.32
2019-05-25T13:33:32.696Z,25.25
2019-05-25T13:36:06.098Z,24.00
2019-05-25T13:38:39.521Z,27.34
2019-05-25T13:41:12.917Z,28.96
2019-05-25T13:43:46.355Z,30.06
2019-05-25T13:46:19.760Z,30.25
2019-05-25T13:48:54.829Z,27.74
2019-05-25T13:51:28.263Z,27.19
2019-05-25T13:54:01.684Z,26.41
2019-05-25T13:56:35.072Z,27.28
2019-05-25T13:59:08.532Z,29.95
2019-05-25T14:01:41.938Z,29.67
2019-05-25T14:04:15.487Z,29.20
2019-05-25T14:06:48.881Z,26.87
2019-05-25T14:09:22.311Z,27.11
2019-05-25T14:11:55.729Z,24.77
2019-05-25T14:14:29.131Z,25.35
2019-05-25T14:17:02.621Z,26.92
2019-05-25T14:19:36.115Z,26.99
2019-05-25T14:22:09.529Z,27.41
2019-05-25T14:24:42.942Z,27.49
2019-05-25T14:27:16.387Z,27.36
2019-05-25T14:29:49.807Z,27.25
2019-05-25T14:32:23.208Z,28.69
2019-05-25T14:34:56.626Z,28.53
2019-05-25T14:37:30.071Z,30.14
2019-05-25T14:40:04.772Z,29.65
2019-05-25T14:42:38.177Z,28.73
2019-05-25T14:45:11.940Z,29.64
2019-05-25T14:47:45.358Z,30.15
2019-05-25T14:50:18.915Z,30.91
2019-05-25T14:52:52.380Z,30.81
2019-05-25T14:55:25.802Z,30.32
2019-05-25T14:57:59.205Z,30.33
2019-05-25T15:00:32.814Z,28.99
2019-05-25T15:03:06.206Z,28.62
2019-05-25T15:05:39.626Z,29.26
2019-05-25T15:08:13.095Z,28.71
2019-05-25T15:10:46.522Z,28.06
2019-05-25T15:13:19.927Z,27.63
2019-05-25T15:15:53.349Z,26.33
2019-05-25T15:18:26.759Z,26.46
2019-05-25T15:21:00.229Z,28.60
2019-05-25T15:23:33.627Z,27.33
2019-05-25T15:26:07.048Z,27.31
2019-05-25T15:28:40.461Z,26.82
2019-05-25T15:31:14.023Z,28.26
2019-05-25T15:33:47.430Z,27.00
2019-05-25T15:36:20.859Z,25.05
2019-05-25T15:38:54.279Z,23.16
2019-05-25T15:41:27.664Z,22.28
2019-05-25T15:44:01.055Z,24.06
2019-05-25T15:46:34.460Z,25.29
2019-05-25T15:49:07.869Z,25.07
2019-05-25T15:51:41.273Z,25.55
2019-05-25T15:54:14.661Z,26.10
2019-05-25T15:56:48.078Z,25.34
2019-05-25T15:59:23.598Z,23.78
2019-05-25T16:01:56.666Z,22.54
2019-05-25T16:04:30.069Z,22.34
2019-05-25T16:07:04.540Z,23.71
2019-05-25T16:09:37.976Z,22.25
2019-05-25T16:12:11.396Z,23.19
2019-05-25T16:14:44.787Z,23.19
2019-05-25T16:17:18.205Z,24.74
2019-05-25T16:19:51.705Z,24.46
2019-05-25T16:22:25.107Z,27.36
2019-05-25T16:24:58.528Z,27.37
2019-05-25T16:27:31.986Z,26.08
2019-05-25T16:30:08.039Z,27.85
2019-05-25T16:33:10.042Z,28.38
2019-05-25T16:35:16.744Z,27.98
2019-05-25T16:37:50.482Z,27.68
2019-05-25T16:40:24.446Z,27.39
2019-05-25T16:42:57.820Z,27.02
2019-05-25T16:45:31.274Z,26.53
2019-05-25T16:48:04.804Z,25.53
2019-05-25T16:50:38.226Z,25.51
2019-05-25T16:53:11.640Z,25.89
2019-05-25T16:55:45.052Z,27.78
2019-05-25T16:58:18.562Z,26.74
2019-05-25T17:00:51.992Z,26.65
2019-05-25T17:03:28.550Z,27.11
2019-05-25T17:06:00.649Z,26.86
2019-05-25T17:08:34.088Z,27.26
2019-05-25T17:11:07.576Z,28.24
2019-05-25T17:13:40.969Z,28.34
2019-05-25T17:16:14.475Z,27.89
2019-05-25T17:18:47.856Z,26.91
2019-05-25T17:21:21.274Z,30.11
2019-05-25T17:23:54.736Z,29.60
2019-05-25T17:26:28.143Z,28.46
2019-05-25T17:29:01.766Z,31.89
2019-05-25T17:31:35.200Z,32.46
2019-05-25T17:34:08.652Z,33.56
2019-05-25T17:36:42.091Z,33.99
2019-05-25T17:39:15.520Z,34.18
2019-05-25T17:41:48.950Z,34.57
2019-05-25T17:44:22.366Z,32.00
2019-05-25T17:46:55.789Z,34.12
2019-05-25T17:49:29.179Z,34.09
2019-05-25T17:52:03.348Z,34.33
2019-05-25T17:54:36.749Z,34.96
2019-05-25T17:57:10.246Z,35.32
2019-05-25T17:59:43.700Z,36.09
2019-05-25T18:02:17.109Z,36.14
2019-05-25T18:04:50.528Z,36.59
2019-05-25T18:07:23.997Z,37.31
2019-05-25T18:09:57.389Z,38.30
2019-05-25T18:12:30.816Z,39.12
2019-05-25T18:15:07.461Z,38.79
2019-05-25T18:17:41.375Z,38.69
2019-05-25T18:20:15.163Z,38.56
2019-05-25T18:22:48.590Z,39.50
2019-05-25T18:25:22.074Z,39.93
2019-05-25T18:27:55.471Z,39.47
2019-05-25T18:30:31.012Z,39.34
2019-05-25T18:33:04.822Z,40.24
2019-05-25T18:35:41.593Z,40.41
2019-05-25T18:38:15.005Z,41.20
2019-05-25T18:40:48.406Z,42.04
2019-05-25T18:43:21.900Z,42.03
2019-05-25T18:45:55.315Z,42.34
2019-05-25T18:48:28.728Z,42.68
2019-05-25T18:51:02.210Z,43.82
2019-05-25T18:53:35.646Z,43.69
2019-05-25T18:56:09.039Z,44.73
2019-05-25T18:58:42.451Z,45.55
2019-05-25T19:01:15.840Z,46.19
2019-05-25T19:03:49.281Z,46.87
2019-05-25T19:06:22.767Z,47.16
2019-05-25T19:08:56.252Z,47.51
2019-05-25T19:11:29.659Z,47.49
2019-05-25T19:14:03.099Z,47.70
2019-05-25T19:16:36.632Z,47.74
2019-05-25T19:19:10.052Z,47.74
2019-05-25T19:21:43.609Z,48.95
2019-05-25T19:24:17.024Z,48.04
2019-05-25T19:26:50.404Z,49.52
2019-05-25T19:29:23.848Z,49.21
2019-05-25T19:31:57.247Z,48.93
2019-05-25T19:34:30.681Z,48.51
2019-05-25T19:37:04.066Z,49.60
2019-05-25T19:39:37.498Z,48.98
2019-05-25T19:42:10.925Z,49.05
2019-05-25T19:44:44.323Z,49.54
2019-05-25T19:47:17.730Z,49.62
2019-05-25T19:49:51.141Z,49.75
2019-05-25T19:52:24.558Z,50.91
2019-05-25T19:54:57.972Z,50.53
2019-05-25T19:57:31.452Z,50.45
2019-05-25T20:00:08.647Z,50.67
2019-05-25T20:02:42.043Z,50.86
2019-05-25T20:05:17.276Z,50.89
2019-05-25T20:07:50.724Z,51.26
2019-05-25T20:10:24.230Z,50.67
2019-05-25T20:12:57.633Z,51.43
2019-05-25T20:15:31.049Z,51.46
2019-05-25T20:18:04.531Z,51.36
2019-05-25T20:20:37.961Z,51.30
2019-05-25T20:23:11.431Z,50.97
2019-05-25T20:25:44.852Z,50.92
2019-05-25T20:28:18.271Z,50.54
2019-05-25T20:30:51.703Z,50.36
2019-05-25T20:33:27.966Z,50.81
2019-05-25T20:36:00.369Z,50.81
2019-05-25T20:38:33.872Z,50.72
2019-05-25T20:41:07.299Z,51.14
2019-05-25T20:43:40.719Z,51.23
2019-05-25T20:46:14.219Z,51.26
2019-05-25T20:48:47.645Z,51.47
2019-05-25T20:51:21.067Z,51.52
2019-05-25T20:53:54.572Z,51.99
2019-05-25T20:56:27.996Z,51.86
2019-05-25T20:59:01.408Z,51.93
2019-05-25T21:01:34.845Z,51.85
2019-05-25T21:04:08.346Z,51.96
2019-05-25T21:06:42.751Z,52.03
2019-05-25T21:09:16.170Z,51.86
2019-05-25T21:11:49.600Z,52.06
2019-05-25T21:14:23.003Z,52.30
2019-05-25T21:16:56.533Z,52.30
2019-05-25T21:19:29.927Z,52.55
2019-05-25T21:22:03.479Z,53.31
2019-05-25T21:24:36.937Z,52.62
2019-05-25T21:27:10.386Z,52.65
2019-05-25T21:29:43.832Z,53.13
2019-05-25T21:32:17.216Z,53.13
2019-05-25T21:34:50.647Z,53.68
2019-05-25T21:37:24.059Z,53.86
2019-05-25T21:39:57.502Z,54.45
2019-05-25T21:42:30.908Z,54.36
2019-05-25T21:45:05.187Z,54.75
2019-05-25T21:47:38.592Z,54.75
2019-05-25T21:50:13.194Z,54.90
2019-05-25T21:52:46.653Z,55.10
2019-05-25T21:55:20.148Z,55.99
2019-05-25T21:57:53.573Z,56.13
2019-05-25T22:00:28.981Z,56.09
2019-05-25T22:03:02.373Z,54.97
2019-05-25T22:05:35.902Z,54.97
2019-05-25T22:08:09.290Z,55.21
2019-05-25T22:10:42.710Z,55.37
2019-05-25T22:13:27.775Z,55.39
2019-05-25T22:15:51.309Z,55.00
2019-05-25T22:18:24.703Z,55.70
2019-05-25T22:20:58.128Z,56.57
2019-05-25T22:23:31.563Z,56.88
2019-05-25T22:26:05.067Z,56.24
2019-05-25T22:28:44.822Z,55.92
2019-05-25T22:31:13.626Z,55.70
2019-05-25T22:33:47.003Z,55.68
2019-05-25T22:36:20.499Z,55.74
2019-05-25T22:38:53.901Z,56.00
2019-05-25T22:41:27.327Z,56.14
2019-05-25T22:44:00.751Z,56.20
2019-05-25T22:46:34.178Z,56.27
2019-05-25T22:49:07.609Z,56.36
2019-05-25T22:51:41.044Z,56.63
2019-05-25T22:54:14.440Z,57.01
2019-05-25T22:56:47.876Z,56.92
2019-05-25T22:59:21.294Z,56.94
2019-05-25T23:01:54.727Z,57.32
2019-05-25T23:04:28.150Z,57.86
2019-05-25T23:07:01.664Z,58.72
2019-05-25T23:09:35.053Z,59.96
2019-05-25T23:12:08.475Z,60.04
2019-05-25T23:14:41.886Z,59.72
2019-05-25T23:17:15.326Z,59.30
2019-05-25T23:19:48.721Z,59.31
2019-05-25T23:22:22.160Z,59.35
2019-05-25T23:24:55.559Z,60.08
2019-05-25T23:27:28.959Z,60.17
2019-05-25T23:30:02.424Z,60.07
2019-05-25T23:32:35.906Z,60.29
2019-05-25T23:35:09.451Z,60.94
2019-05-25T23:37:42.851Z,61.48
2019-05-25T23:40:16.585Z,61.62
2019-05-25T23:42:50.069Z,61.09
2019-05-25T23:45:23.495Z,61.19
2019-05-25T23:47:56.979Z,61.82
2019-05-25T23:50:30.464Z,62.64
2019-05-25T23:53:03.879Z,62.74
2019-05-25T23:55:37.281Z,62.92
2019-05-25T23:58:10.784Z,63.36
